Time;durP1;ratioP1;P1;durP2;ratioP2;P2;SDS_P1;SDS_P2;PMS_P1;PMS_P2;Temp;Humidity;BMP_temperature;BMP_pressure;BME280_temperature;BME280_humidity;BME280_pressure;Samples;Min_cycle;Max_cycle;Signal;HPM_P1;HPM_P2
2022/06/07 00:00:38;0.00;0.00;0.62;0.00;0.00;0.62;1.40;0.80;;;25.00;28.40;;;;;;2266871;61;20420;-51
2022/06/07 00:03:26;0.00;0.00;0.62;0.00;0.00;0.62;1.30;0.70;;;25.00;28.30;;;;;;2268520;61;20367;-51
2022/06/07 00:06:27;0.00;0.00;0.62;0.00;0.00;0.62;1.20;0.60;;;25.00;28.30;;;;;;2267396;61;20411;-53
2022/06/07 00:09:14;0.00;0.00;0.62;0.00;0.00;0.62;1.50;0.70;;;25.00;28.30;;;;;;2268262;61;20409;-49
2022/06/07 00:12:00;0.00;0.00;0.62;0.00;0.00;0.62;2.43;0.80;;;25.10;28.30;;;;;;2628858;45;20357;-51
2022/06/07 00:14:46;0.00;0.00;0.62;0.00;0.00;0.62;1.80;0.87;;;25.10;28.30;;;;;;2271761;60;20897;-56
2022/06/07 00:17:31;0.00;0.00;0.62;0.00;0.00;0.62;1.23;0.70;;;25.10;28.20;;;;;;2272229;61;20772;-53
2022/06/07 00:20:16;0.00;0.00;0.62;0.00;0.00;0.62;1.33;0.67;;;25.10;28.20;;;;;;2271909;61;20359;-53
2022/06/07 00:23:02;0.00;0.00;0.62;0.00;0.00;0.62;1.20;0.70;;;25.10;28.20;;;;;;2271963;61;20466;-52
2022/06/07 00:25:51;0.00;0.00;0.62;0.00;0.00;0.62;1.80;0.73;;;25.10;28.20;;;;;;2272391;61;20461;-51
2022/06/07 00:28:38;0.00;0.00;0.62;0.00;0.00;0.62;1.20;0.70;;;25.20;28.20;;;;;;2271478;61;20358;-56
2022/06/07 00:31:23;0.00;0.00;0.62;0.00;0.00;0.62;1.40;0.80;;;25.20;28.10;;;;;;2272190;61;20504;-56
2022/06/07 00:34:08;0.00;0.00;0.62;0.00;0.00;0.62;1.30;0.60;;;25.20;28.00;;;;;;2272243;61;20396;-57
2022/06/07 00:36:53;0.00;0.00;0.62;0.00;0.00;0.62;2.57;0.80;;;25.20;28.00;;;;;;2271254;61;20385;-56
2022/06/07 00:39:38;0.00;0.00;0.62;0.00;0.00;0.62;2.30;0.80;;;25.20;28.00;;;;;;2272289;61;20369;-55
2022/06/07 00:42:23;0.00;0.00;0.62;0.00;0.00;0.62;1.70;0.80;;;25.20;28.00;;;;;;2272003;61;20362;-58
2022/06/07 00:45:14;0.00;0.00;0.62;0.00;0.00;0.62;1.30;0.70;;;25.20;28.00;;;;;;2272263;61;20378;-57
2022/06/07 00:47:59;0.00;0.00;0.62;0.00;0.00;0.62;1.27;0.77;;;25.20;28.00;;;;;;2273171;61;20779;-59
2022/06/07 00:50:52;0.00;0.00;0.62;0.00;0.00;0.62;1.20;0.70;;;25.20;28.00;;;;;;2271498;61;20384;-58
2022/06/07 00:53:37;0.00;0.00;0.62;0.00;0.00;0.62;2.17;0.70;;;25.30;28.10;;;;;;2273119;61;20986;-56
2022/06/07 00:56:49;0.00;0.00;0.62;0.00;0.00;0.62;1.90;0.70;;;25.30;28.00;;;;;;2272852;61;20482;-54
2022/06/07 00:59:35;0.00;0.00;0.62;0.00;0.00;0.62;1.53;0.60;;;25.30;28.00;;;;;;2268925;61;20366;-51
2022/06/07 01:02:22;0.00;0.00;0.62;0.00;0.00;0.62;1.70;0.80;;;25.30;28.00;;;;;;2272304;61;20897;-53
2022/06/07 01:05:08;0.00;0.00;0.62;0.00;0.00;0.62;1.80;0.80;;;25.30;27.90;;;;;;2269019;61;20362;-52
2022/06/07 01:11:05;0.00;0.00;0.62;0.00;0.00;0.62;1.60;0.90;;;25.20;27.40;;;;;;2272168;61;20382;-51
2022/06/07 01:13:51;0.00;0.00;0.62;0.00;0.00;0.62;1.90;1.10;;;25.30;27.30;;;;;;2272861;60;20368;-55
2022/06/07 01:16:43;0.00;0.00;0.62;0.00;0.00;0.62;1.60;1.10;;;25.20;27.20;;;;;;2276488;60;20717;-53
2022/06/07 01:19:30;0.00;0.00;0.62;0.00;0.00;0.62;1.60;1.13;;;25.20;27.10;;;;;;2276293;60;20937;-59
2022/06/07 01:22:18;0.00;0.00;0.62;0.00;0.00;0.62;1.50;1.10;;;25.20;27.00;;;;;;2276296;60;20476;-54
2022/06/07 01:25:06;0.00;0.00;0.62;0.00;0.00;0.62;2.00;1.23;;;25.20;27.00;;;;;;2276614;60;20377;-55
2022/06/07 01:27:52;0.00;0.00;0.62;0.00;0.00;0.62;1.60;1.20;;;25.20;27.00;;;;;;2275497;60;20361;-53
2022/06/07 01:30:37;0.00;0.00;0.62;0.00;0.00;0.62;1.47;1.13;;;25.10;27.00;;;;;;2276459;60;20463;-57
2022/06/07 01:33:22;0.00;0.00;0.62;0.00;0.00;0.62;2.27;1.20;;;25.10;27.00;;;;;;2276543;60;20407;-55
2022/06/07 01:36:11;0.00;0.00;0.62;0.00;0.00;0.62;2.53;1.63;;;25.10;27.00;;;;;;2275716;60;20469;-58
2022/06/07 01:42:03;0.00;0.00;0.62;0.00;0.00;0.62;2.23;1.10;;;25.10;27.00;;;;;;2275930;60;20453;-55
2022/06/07 01:44:50;0.00;0.00;0.62;0.00;0.00;0.62;1.83;1.10;;;25.10;27.00;;;;;;2276288;60;20438;-54
2022/06/07 01:47:38;0.00;0.00;0.62;0.00;0.00;0.62;1.70;1.20;;;25.00;26.90;;;;;;2276328;60;20430;-55
2022/06/07 01:50:23;0.00;0.00;0.62;0.00;0.00;0.62;2.23;1.40;;;25.00;26.90;;;;;;2275355;60;20407;-56
2022/06/07 01:53:07;0.00;0.00;0.62;0.00;0.00;0.62;1.40;1.10;;;25.00;26.90;;;;;;2276844;60;20484;-54
2022/06/07 01:56:02;0.00;0.00;0.62;0.00;0.00;0.62;3.93;1.37;;;24.90;26.80;;;;;;2276869;60;20986;-55
2022/06/07 01:58:47;0.00;0.00;0.62;0.00;0.00;0.62;1.60;1.30;;;24.90;26.90;;;;;;2275444;60;20361;-56
2022/06/07 02:01:33;0.00;0.00;0.62;0.00;0.00;0.62;2.57;1.43;;;24.90;26.90;;;;;;2275779;60;20376;-53
2022/06/07 02:04:18;0.00;0.00;0.62;0.00;0.00;0.62;1.80;1.40;;;24.80;26.80;;;;;;2276404;60;20762;-57
2022/06/07 02:07:05;0.00;0.00;0.62;0.00;0.00;0.62;1.73;1.43;;;24.80;26.90;;;;;;2276174;60;20699;-56
2022/06/07 02:09:53;0.00;0.00;0.62;0.00;0.00;0.62;1.93;1.43;;;24.70;26.90;;;;;;2276291;60;20361;-56
2022/06/07 02:12:40;0.00;0.00;0.62;0.00;0.00;0.62;2.23;1.73;;;24.70;26.90;;;;;;2275351;60;20774;-50
2022/06/07 02:15:25;0.00;0.00;0.62;0.00;0.00;0.62;2.50;1.60;;;24.70;27.00;;;;;;2272507;61;20910;-52
2022/06/07 02:18:10;0.00;0.00;0.62;0.00;0.00;0.62;3.63;1.60;;;24.70;27.00;;;;;;2272851;61;20734;-55
2022/06/07 02:21:27;0.00;0.00;0.62;0.00;0.00;0.62;1.83;1.37;;;24.60;26.90;;;;;;2270390;61;20370;-56
2022/06/07 02:24:14;0.00;0.00;0.62;0.00;0.00;0.62;1.80;1.40;;;24.60;26.90;;;;;;2272118;61;20362;-54
2022/06/07 02:27:05;0.00;0.00;0.62;0.00;0.00;0.62;2.50;1.70;;;24.50;26.90;;;;;;2271158;61;21164;-59
2022/06/07 02:29:54;0.00;0.00;0.62;0.00;0.00;0.62;1.80;1.30;;;24.50;27.00;;;;;;2272475;61;20359;-53
2022/06/07 02:32:39;0.00;0.00;0.62;0.00;0.00;0.62;1.70;1.10;;;24.40;27.00;;;;;;2272295;61;20799;-55
2022/06/07 02:35:24;0.00;0.00;0.62;0.00;0.00;0.62;2.20;1.33;;;24.40;27.00;;;;;;2271168;61;20381;-53
2022/06/07 02:38:09;0.00;0.00;0.62;0.00;0.00;0.62;2.00;1.50;;;24.30;27.00;;;;;;2272514;61;20493;-56
2022/06/07 02:40:54;0.00;0.00;0.62;0.00;0.00;0.62;1.67;1.17;;;24.30;27.20;;;;;;2271843;61;20885;-55
2022/06/07 02:43:39;0.00;0.00;0.62;0.00;0.00;0.62;1.80;1.40;;;24.20;27.10;;;;;;2271334;61;20931;-52
2022/06/07 02:46:25;0.00;0.00;0.62;0.00;0.00;0.62;1.83;1.30;;;24.10;27.20;;;;;;2272317;61;20458;-56
2022/06/07 02:49:10;0.00;0.00;0.62;0.00;0.00;0.62;1.90;1.50;;;24.10;27.30;;;;;;2270809;61;20358;-53
2022/06/07 02:51:55;0.00;0.00;0.62;0.00;0.00;0.62;1.80;1.23;;;24.00;27.40;;;;;;2271780;61;20366;-56
2022/06/07 02:54:41;0.00;0.00;0.62;0.00;0.00;0.62;1.83;1.63;;;24.00;27.50;;;;;;2272094;61;20378;-61
2022/06/07 02:57:28;0.00;0.00;0.62;0.00;0.00;0.62;2.23;1.50;;;24.00;27.60;;;;;;2271006;61;20424;-58
2022/06/07 03:00:16;0.00;0.00;0.62;0.00;0.00;0.62;2.97;1.90;;;23.90;27.60;;;;;;2272551;61;20768;-58
2022/06/07 03:03:03;0.00;0.00;0.62;0.00;0.00;0.62;2.50;1.60;;;23.90;27.60;;;;;;2272075;61;20394;-53
2022/06/07 03:05:48;0.00;0.00;0.62;0.00;0.00;0.62;2.43;1.53;;;23.90;27.70;;;;;;2271508;61;20467;-51
2022/06/07 03:08:34;0.00;0.00;0.62;0.00;0.00;0.62;2.03;1.67;;;23.80;28.30;;;;;;2272416;61;20385;-53
2022/06/07 03:11:21;0.00;0.00;0.62;0.00;0.00;0.62;2.00;1.53;;;23.80;27.90;;;;;;2270903;61;20361;-52
2022/06/07 03:14:06;0.00;0.00;0.62;0.00;0.00;0.62;1.73;1.57;;;23.70;27.90;;;;;;2273428;60;20369;-54
2022/06/07 03:16:51;0.00;0.00;0.62;0.00;0.00;0.62;1.87;1.60;;;23.70;28.00;;;;;;2276566;60;20389;-52
2022/06/07 03:19:38;0.00;0.00;0.62;0.00;0.00;0.62;2.37;2.00;;;23.60;27.90;;;;;;2275251;60;20357;-50
2022/06/07 03:22:25;0.00;0.00;0.62;0.00;0.00;0.62;3.20;1.63;;;23.60;28.10;;;;;;2275623;60;20358;-56
2022/06/07 03:25:11;0.00;0.00;0.62;0.00;0.00;0.62;2.60;2.30;;;23.60;28.20;;;;;;2276145;60;20399;-55
2022/06/07 03:27:57;0.00;0.00;0.62;0.00;0.00;0.62;3.23;2.07;;;23.50;28.20;;;;;;2275768;60;20418;-53
2022/06/07 03:30:43;0.00;0.00;0.62;0.00;0.00;0.62;2.30;1.63;;;23.50;28.30;;;;;;2272833;60;20410;-56
2022/06/07 03:33:34;0.00;0.00;0.62;0.00;0.00;0.62;3.97;1.70;;;23.50;28.40;;;;;;2275447;60;20377;-53
2022/06/07 03:36:24;0.00;0.00;0.62;0.00;0.00;0.62;4.60;2.03;;;23.40;28.40;;;;;;2275929;60;20424;-51
2022/06/07 03:39:11;0.00;0.00;0.62;0.00;0.00;0.62;2.47;1.50;;;23.40;28.50;;;;;;2276122;60;20362;-53
2022/06/07 03:42:01;0.00;0.00;0.62;0.00;0.00;0.62;2.63;1.70;;;23.40;28.60;;;;;;2274715;60;20376;-53
2022/06/07 03:44:48;0.00;0.00;0.62;0.00;0.00;0.62;2.77;1.80;;;23.30;28.60;;;;;;2275959;60;20357;-54
2022/06/07 03:47:37;0.00;0.00;0.62;0.00;0.00;0.62;2.63;1.70;;;23.30;28.70;;;;;;2275689;60;20803;-59
2022/06/07 03:50:26;0.00;0.00;0.62;0.00;0.00;0.62;3.47;1.60;;;23.20;28.80;;;;;;2275346;60;20466;-55
2022/06/07 03:53:13;0.00;0.00;0.62;0.00;0.00;0.62;2.80;2.03;;;23.20;28.90;;;;;;2276080;60;20361;-58
2022/06/07 03:56:02;0.00;0.00;0.62;0.00;0.00;0.62;2.13;1.50;;;23.10;28.80;;;;;;2275072;60;20420;-53
2022/06/07 03:58:53;0.00;0.00;0.62;0.00;0.00;0.62;2.30;1.73;;;23.10;28.80;;;;;;2276145;60;20746;-57
2022/06/07 04:01:39;0.00;0.00;0.62;0.00;0.00;0.62;3.23;1.80;;;23.10;28.80;;;;;;2275608;60;20498;-52
2022/06/07 04:04:24;0.00;0.00;0.62;0.00;0.00;0.62;2.10;1.73;;;23.00;28.90;;;;;;2275174;60;20345;-53
2022/06/07 04:10:19;0.00;0.00;0.62;0.00;0.00;0.62;2.40;1.80;;;23.00;29.20;;;;;;2275128;60;20385;-55
2022/06/07 04:13:08;0.00;0.00;0.62;0.00;0.00;0.62;5.13;2.13;;;22.90;29.20;;;;;;2275804;60;20397;-55
2022/06/07 04:15:53;0.00;0.00;0.62;0.00;0.00;0.62;2.00;1.70;;;22.90;29.30;;;;;;2506746;53;20887;-51
2022/06/07 04:18:38;0.00;0.00;0.62;0.00;0.00;0.62;2.77;2.40;;;22.90;29.30;;;;;;2266343;61;20359;-56
2022/06/07 04:21:23;0.00;0.00;0.62;0.00;0.00;0.62;2.50;1.90;;;22.90;29.40;;;;;;2267799;61;20953;-57
2022/06/07 04:24:10;0.00;0.00;0.62;0.00;0.00;0.62;4.10;2.40;;;22.90;29.30;;;;;;2267716;61;20445;-55
2022/06/07 04:26:59;0.00;0.00;0.62;0.00;0.00;0.62;4.03;2.23;;;22.90;29.30;;;;;;2267010;61;20471;-55
2022/06/07 04:29:45;0.00;0.00;0.62;0.00;0.00;0.62;3.50;2.50;;;22.90;29.40;;;;;;2267593;61;20508;-60
2022/06/07 04:32:32;0.00;0.00;0.62;0.00;0.00;0.62;3.20;2.10;;;22.90;29.40;;;;;;2266984;61;20366;-55
2022/06/07 04:35:18;0.00;0.00;0.62;0.00;0.00;0.62;3.47;2.63;;;22.90;29.40;;;;;;2270593;61;20772;-55
2022/06/07 04:38:06;0.00;0.00;0.62;0.00;0.00;0.62;3.90;2.83;;;22.90;29.30;;;;;;2268011;61;20414;-54
2022/06/07 04:40:57;0.00;0.00;0.62;0.00;0.00;0.62;3.00;2.70;;;22.90;29.30;;;;;;2266131;61;20438;-53
2022/06/07 04:43:45;0.00;0.00;0.62;0.00;0.00;0.62;4.37;2.30;;;22.90;29.30;;;;;;2267795;61;20363;-55
2022/06/07 04:46:31;0.00;0.00;0.62;0.00;0.00;0.62;5.97;2.70;;;22.90;29.40;;;;;;2267746;61;20386;-53
2022/06/07 04:49:22;0.00;0.00;0.62;0.00;0.00;0.62;6.43;3.90;;;22.90;29.40;;;;;;2267388;61;20367;-57
2022/06/07 04:52:07;0.00;0.00;0.62;0.00;0.00;0.62;4.27;3.33;;;22.90;29.50;;;;;;2267325;61;20379;-53
2022/06/07 04:54:58;0.00;0.00;0.62;0.00;0.00;0.62;4.63;3.37;;;22.90;29.50;;;;;;2266992;61;20447;-53
2022/06/07 04:57:43;0.00;0.00;0.62;0.00;0.00;0.62;5.17;3.43;;;22.80;29.50;;;;;;2272020;60;20442;-57
2022/06/07 05:00:32;0.00;0.00;0.62;0.00;0.00;0.62;4.50;2.43;;;22.80;29.50;;;;;;2275619;60;20423;-59
2022/06/07 05:03:21;0.00;0.00;0.62;0.00;0.00;0.62;3.57;2.27;;;22.80;29.60;;;;;;2274847;60;20361;-55
2022/06/07 05:06:17;0.00;0.00;0.62;0.00;0.00;0.62;2.90;2.30;;;22.80;29.70;;;;;;2276085;60;20405;-57
2022/06/07 05:09:07;0.00;0.00;0.62;0.00;0.00;0.62;2.87;1.80;;;22.80;29.80;;;;;;2275150;60;20821;-59
2022/06/07 05:11:53;0.00;0.00;0.62;0.00;0.00;0.62;6.10;2.20;;;22.80;29.80;;;;;;2275173;60;20388;-65
2022/06/07 05:14:40;0.00;0.00;0.62;0.00;0.00;0.62;3.60;2.23;;;22.80;29.90;;;;;;2270439;60;20384;-58
2022/06/07 05:17:26;0.00;0.00;0.62;0.00;0.00;0.62;2.90;2.10;;;22.80;29.90;;;;;;2271046;61;20998;-51
2022/06/07 05:20:15;0.00;0.00;0.62;0.00;0.00;0.62;3.43;2.03;;;22.80;30.00;;;;;;2271586;61;20403;-57
2022/06/07 05:23:02;0.00;0.00;0.62;0.00;0.00;0.62;2.97;1.93;;;22.80;29.90;;;;;;2271748;61;20384;-58
2022/06/07 05:25:59;0.00;0.00;0.62;0.00;0.00;0.62;2.90;1.90;;;22.80;30.00;;;;;;2270803;61;20366;-56
2022/06/07 05:28:45;0.00;0.00;0.62;0.00;0.00;0.62;2.70;2.20;;;22.80;30.00;;;;;;2272195;61;20446;-54
2022/06/07 05:31:32;0.00;0.00;0.62;0.00;0.00;0.62;2.90;2.07;;;22.80;30.00;;;;;;2271294;61;20911;-55
2022/06/07 05:34:19;0.00;0.00;0.62;0.00;0.00;0.62;2.43;1.87;;;22.80;30.10;;;;;;2272665;61;20813;-57
2022/06/07 05:37:13;0.00;0.00;0.62;0.00;0.00;0.62;2.67;1.90;;;22.80;30.10;;;;;;2272210;61;20430;-54
2022/06/07 05:39:59;0.00;0.00;0.62;0.00;0.00;0.62;2.43;1.87;;;22.80;30.10;;;;;;2271259;61;20361;-56
2022/06/07 05:42:45;0.00;0.00;0.62;0.00;0.00;0.62;4.90;2.20;;;22.80;30.00;;;;;;2272117;61;20886;-54
2022/06/07 05:45:34;0.00;0.00;0.62;0.00;0.00;0.62;2.00;1.57;;;22.80;30.10;;;;;;2269840;61;20808;-56
2022/06/07 05:48:24;0.00;0.00;0.62;0.00;0.00;0.62;2.67;2.10;;;22.80;30.20;;;;;;2271375;61;20940;-54
2022/06/07 05:51:13;0.00;0.00;0.62;0.00;0.00;0.62;3.70;2.23;;;22.90;30.90;;;;;;2271948;61;20406;-54
2022/06/07 05:53:57;0.00;0.00;0.62;0.00;0.00;0.62;2.43;1.97;;;22.90;30.30;;;;;;2271756;61;20362;-54
2022/06/07 05:56:43;0.00;0.00;0.62;0.00;0.00;0.62;3.53;1.83;;;22.90;30.30;;;;;;2272465;61;20455;-55
2022/06/07 05:59:28;0.00;0.00;0.62;0.00;0.00;0.62;2.53;1.83;;;22.90;30.40;;;;;;2272266;61;20828;-56
2022/06/07 06:02:13;0.00;0.00;0.62;0.00;0.00;0.62;2.53;2.10;;;22.90;30.40;;;;;;2268105;61;20450;-52
2022/06/07 06:04:59;0.00;0.00;0.62;0.00;0.00;0.62;2.17;1.97;;;23.00;30.50;;;;;;2272301;61;20444;-53
2022/06/07 06:11:04;0.00;0.00;0.62;0.00;0.00;0.62;2.97;2.10;;;23.00;30.60;;;;;;2271543;61;20813;-49
2022/06/07 06:13:50;0.00;0.00;0.62;0.00;0.00;0.62;2.80;2.00;;;23.00;30.60;;;;;;2273773;60;20373;-54
2022/06/07 06:16:37;0.00;0.00;0.62;0.00;0.00;0.62;3.03;2.20;;;23.00;30.50;;;;;;2275406;60;20393;-57
2022/06/07 06:19:24;0.00;0.00;0.62;0.00;0.00;0.62;3.30;1.80;;;23.00;30.60;;;;;;2276681;60;20384;-59
2022/06/07 06:22:09;0.00;0.00;0.62;0.00;0.00;0.62;2.50;2.20;;;23.00;30.70;;;;;;2275919;60;20394;-56
2022/06/07 06:25:02;0.00;0.00;0.62;0.00;0.00;0.62;2.43;1.73;;;23.00;30.70;;;;;;2275365;60;20403;-54
2022/06/07 06:27:48;0.00;0.00;0.62;0.00;0.00;0.62;2.73;2.00;;;23.00;30.80;;;;;;2276514;60;20369;-57
2022/06/07 06:30:33;0.00;0.00;0.62;0.00;0.00;0.62;2.30;1.80;;;23.00;30.80;;;;;;2275366;60;20407;-55
2022/06/07 06:33:30;0.00;0.00;0.62;0.00;0.00;0.62;2.40;1.50;;;23.00;30.80;;;;;;2276709;60;20394;-55
2022/06/07 06:36:19;0.00;0.00;0.62;0.00;0.00;0.62;4.40;2.10;;;23.00;30.80;;;;;;2276340;60;20384;-55
2022/06/07 06:39:05;0.00;0.00;0.62;0.00;0.00;0.62;2.80;1.80;;;23.00;30.90;;;;;;2275234;60;20366;-57
2022/06/07 06:41:55;0.00;0.00;0.62;0.00;0.00;0.62;2.53;1.90;;;23.00;30.80;;;;;;2275811;60;20419;-59
2022/06/07 06:45:00;0.00;0.00;0.62;0.00;0.00;0.62;2.50;1.80;;;23.00;30.80;;;;;;2276059;60;20369;-56
2022/06/07 06:47:45;0.00;0.00;0.62;0.00;0.00;0.62;3.37;2.20;;;23.10;30.80;;;;;;2276453;60;20377;-55
2022/06/07 06:50:30;0.00;0.00;0.62;0.00;0.00;0.62;3.10;1.83;;;23.10;30.90;;;;;;2275627;60;20354;-57
2022/06/07 06:53:16;0.00;0.00;0.62;0.00;0.00;0.62;2.33;2.03;;;23.20;31.00;;;;;;2274983;60;20815;-59
2022/06/07 06:56:06;0.00;0.00;0.62;0.00;0.00;0.62;2.50;1.90;;;23.10;31.00;;;;;;2270144;60;20398;-53
2022/06/07 06:58:59;0.00;0.00;0.62;0.00;0.00;0.62;6.13;1.93;;;23.20;31.00;;;;;;2270875;61;20397;-58
2022/06/07 07:01:44;0.00;0.00;0.62;0.00;0.00;0.62;2.83;1.63;;;23.20;30.90;;;;;;2268128;60;20939;-59
2022/06/07 07:04:29;0.00;0.00;0.62;0.00;0.00;0.62;2.70;2.00;;;23.20;30.80;;;;;;2272253;60;20394;-48
2022/06/07 07:07:16;0.00;0.00;0.62;0.00;0.00;0.62;3.40;1.57;;;23.20;30.80;;;;;;2272209;61;20382;-54
2022/06/07 07:10:02;0.00;0.00;0.62;0.00;0.00;0.62;2.97;1.80;;;23.30;30.80;;;;;;2272092;60;20366;-52
2022/06/07 07:12:47;0.00;0.00;0.62;0.00;0.00;0.62;2.50;1.93;;;23.30;30.70;;;;;;2272221;60;20358;-55
2022/06/07 07:15:39;0.00;0.00;0.62;0.00;0.00;0.62;2.17;1.73;;;23.30;30.40;;;;;;2275642;60;20447;-58
2022/06/07 07:18:28;0.00;0.00;0.62;0.00;0.00;0.62;2.17;1.70;;;23.40;30.30;;;;;;2273397;60;20434;-54
2022/06/07 07:21:18;0.00;0.00;0.62;0.00;0.00;0.62;2.97;1.73;;;23.40;30.00;;;;;;2275802;60;20357;-58
2022/06/07 07:24:08;0.00;0.00;0.62;0.00;0.00;0.62;2.07;1.50;;;23.40;30.00;;;;;;2272358;60;20354;-61
2022/06/07 07:26:54;0.00;0.00;0.62;0.00;0.00;0.62;3.00;1.23;;;23.40;29.90;;;;;;2275875;60;20784;-61
2022/06/07 07:29:42;0.00;0.00;0.62;0.00;0.00;0.62;3.50;1.60;;;23.40;29.80;;;;;;2272997;60;20435;-59
2022/06/07 07:32:33;0.00;0.00;0.62;0.00;0.00;0.62;3.73;1.50;;;23.40;29.80;;;;;;2275179;60;20376;-55
2022/06/07 07:35:19;0.00;0.00;0.62;0.00;0.00;0.62;4.40;1.50;;;23.40;29.70;;;;;;2275865;60;20381;-60
2022/06/07 07:38:13;0.00;0.00;0.62;0.00;0.00;0.62;2.43;1.40;;;23.50;29.70;;;;;;2275318;60;20354;-59
2022/06/07 07:40:59;0.00;0.00;0.62;0.00;0.00;0.62;2.07;1.57;;;23.50;29.50;;;;;;2275532;60;20939;-61
2022/06/07 07:43:45;0.00;0.00;0.62;0.00;0.00;0.62;2.37;1.50;;;23.50;29.40;;;;;;2276076;60;20861;-57
2022/06/07 07:46:33;0.00;0.00;0.62;0.00;0.00;0.62;3.30;1.70;;;23.50;29.40;;;;;;2275074;60;20369;-56
2022/06/07 07:49:21;0.00;0.00;0.62;0.00;0.00;0.62;1.57;1.13;;;23.50;29.40;;;;;;2275906;60;20935;-64
2022/06/07 07:52:07;0.00;0.00;0.62;0.00;0.00;0.62;1.53;1.10;;;23.50;29.50;;;;;;2272036;60;20398;-58
2022/06/07 07:54:52;0.00;0.00;0.62;0.00;0.00;0.62;2.50;1.50;;;23.60;29.60;;;;;;2272442;60;20440;-57
2022/06/07 07:57:37;0.00;0.00;0.62;0.00;0.00;0.62;1.97;1.43;;;23.60;29.60;;;;;;2273235;60;20606;-59
2022/06/07 08:00:22;0.00;0.00;0.62;0.00;0.00;0.62;1.87;1.30;;;23.60;29.50;;;;;;2273067;60;20369;-57
2022/06/07 08:03:20;0.00;0.00;0.62;0.00;0.00;0.62;2.20;1.23;;;23.60;29.40;;;;;;2275945;60;20373;-58
2022/06/07 08:06:18;0.00;0.00;0.62;0.00;0.00;0.62;3.40;1.67;;;23.60;29.40;;;;;;2273519;60;20422;-60
2022/06/07 08:09:06;0.00;0.00;0.62;0.00;0.00;0.62;1.70;1.10;;;23.60;29.30;;;;;;2275723;60;20885;-51
2022/06/07 08:11:51;0.00;0.00;0.62;0.00;0.00;0.62;3.27;1.30;;;23.70;29.40;;;;;;2275855;60;20357;-55
2022/06/07 08:14:37;0.00;0.00;0.62;0.00;0.00;0.62;2.50;1.20;;;23.70;29.30;;;;;;2273030;60;20951;-57
2022/06/07 08:17:21;0.00;0.00;0.62;0.00;0.00;0.62;1.60;1.20;;;23.70;29.20;;;;;;2272273;61;20389;-62
2022/06/07 08:20:08;0.00;0.00;0.62;0.00;0.00;0.62;4.23;1.33;;;23.80;29.20;;;;;;2272195;61;20366;-58
2022/06/07 08:22:57;0.00;0.00;0.62;0.00;0.00;0.62;2.20;1.70;;;23.80;28.80;;;;;;2271269;61;20362;-61
2022/06/07 08:25:42;0.00;0.00;0.62;0.00;0.00;0.62;1.80;1.30;;;23.80;29.40;;;;;;2269631;61;20438;-56
2022/06/07 08:28:27;0.00;0.00;0.62;0.00;0.00;0.62;1.90;1.30;;;23.80;28.90;;;;;;2272264;61;20732;-55
2022/06/07 08:31:13;0.00;0.00;0.62;0.00;0.00;0.62;2.13;1.43;;;23.90;29.00;;;;;;2271473;61;20410;-54
2022/06/07 08:40:14;0.00;0.00;0.62;0.00;0.00;0.62;1.50;1.00;;;24.00;29.30;;;;;;2272243;61;20442;-58
2022/06/07 08:43:05;0.00;0.00;0.62;0.00;0.00;0.62;3.97;1.40;;;24.00;29.30;;;;;;2272329;61;20390;-60
2022/06/07 08:45:52;0.00;0.00;0.62;0.00;0.00;0.62;6.53;1.53;;;24.00;29.40;;;;;;2271385;61;20833;-61
2022/06/07 08:48:38;0.00;0.00;0.62;0.00;0.00;0.62;1.60;1.10;;;24.10;29.40;;;;;;2271641;61;20362;-53
2022/06/07 08:51:28;0.00;0.00;0.62;0.00;0.00;0.62;2.40;1.20;;;24.10;29.40;;;;;;2271320;61;20354;-58
2022/06/07 08:54:19;0.00;0.00;0.62;0.00;0.00;0.62;2.10;1.30;;;24.10;29.40;;;;;;2271653;61;20420;-60
2022/06/07 08:57:18;0.00;0.00;0.62;0.00;0.00;0.62;1.90;1.00;;;24.20;29.50;;;;;;2271954;61;20433;-61
2022/06/07 09:00:21;0.00;0.00;0.62;0.00;0.00;0.62;2.63;1.20;;;24.20;29.50;;;;;;2271126;61;20757;-60
2022/06/07 09:03:38;0.00;0.00;0.62;0.00;0.00;0.62;1.50;1.10;;;24.30;29.60;;;;;;2272597;61;20364;-60
2022/06/07 09:06:25;0.00;0.00;0.62;0.00;0.00;0.62;1.70;1.30;;;24.30;29.60;;;;;;2271895;61;20416;-55
2022/06/07 09:09:12;0.00;0.00;0.62;0.00;0.00;0.62;2.37;1.30;;;24.30;29.50;;;;;;2272041;60;20378;-53
2022/06/07 09:12:14;0.00;0.00;0.62;0.00;0.00;0.62;1.43;1.03;;;24.40;29.60;;;;;;2269882;60;20355;-60
2022/06/07 09:15:10;0.00;0.00;0.62;0.00;0.00;0.62;2.27;1.47;;;24.40;29.60;;;;;;2273297;60;20414;-57
2022/06/07 09:17:58;0.00;0.00;0.62;0.00;0.00;0.62;3.20;1.30;;;24.50;29.60;;;;;;2276979;60;20357;-56
2022/06/07 09:20:46;0.00;0.00;0.62;0.00;0.00;0.62;2.33;1.00;;;24.50;29.50;;;;;;2275965;60;20356;-56
2022/06/07 09:23:34;0.00;0.00;0.62;0.00;0.00;0.62;2.10;1.33;;;24.50;29.50;;;;;;2276646;60;20398;-59
2022/06/07 09:26:24;0.00;0.00;0.62;0.00;0.00;0.62;1.90;1.50;;;24.60;29.50;;;;;;2275005;60;20845;-54
2022/06/07 09:29:19;0.00;0.00;0.62;0.00;0.00;0.62;3.57;1.77;;;24.60;29.50;;;;;;2275757;60;20357;-53
2022/06/07 09:32:11;0.00;0.00;0.62;0.00;0.00;0.62;3.13;1.60;;;24.60;29.50;;;;;;2276263;60;20354;-56
2022/06/07 09:35:00;0.00;0.00;0.62;0.00;0.00;0.62;1.67;1.00;;;24.70;29.50;;;;;;2276967;60;20361;-52
2022/06/07 09:37:51;0.00;0.00;0.62;0.00;0.00;0.62;1.73;1.37;;;24.70;29.50;;;;;;2276388;60;20797;-55
2022/06/07 09:40:42;0.00;0.00;0.62;0.00;0.00;0.62;1.43;1.10;;;24.80;29.60;;;;;;2276584;60;20383;-61
2022/06/07 09:43:39;0.00;0.00;0.62;0.00;0.00;0.62;1.60;1.03;;;24.80;29.50;;;;;;2275935;60;20357;-53
2022/06/07 09:46:26;0.00;0.00;0.62;0.00;0.00;0.62;1.73;1.00;;;24.80;29.50;;;;;;2276742;60;20377;-57
2022/06/07 09:49:29;0.00;0.00;0.62;0.00;0.00;0.62;2.33;1.33;;;24.90;29.50;;;;;;2276429;60;20953;-54
2022/06/07 09:52:20;0.00;0.00;0.62;0.00;0.00;0.62;1.97;1.43;;;24.90;29.50;;;;;;2275277;60;20841;-57
2022/06/07 09:55:21;0.00;0.00;0.62;0.00;0.00;0.62;1.70;1.20;;;24.90;29.50;;;;;;2276444;60;20403;-57
2022/06/07 09:58:41;0.00;0.00;0.62;0.00;0.00;0.62;1.87;1.30;;;25.00;29.50;;;;;;2275843;60;20362;-59
2022/06/07 10:01:39;0.00;0.00;0.62;0.00;0.00;0.62;2.40;1.13;;;25.00;29.50;;;;;;2275966;60;20365;-59
2022/06/07 10:04:35;0.00;0.00;0.62;0.00;0.00;0.62;1.90;1.03;;;25.00;29.50;;;;;;2276938;60;20773;-53
2022/06/07 10:07:28;0.00;0.00;0.62;0.00;0.00;0.62;1.43;1.00;;;25.10;29.50;;;;;;2276363;60;20385;-62
2022/06/07 10:10:25;0.00;0.00;0.62;0.00;0.00;0.62;2.47;1.23;;;25.10;29.50;;;;;;2276964;60;20387;-57
2022/06/07 10:13:26;0.00;0.00;0.62;0.00;0.00;0.62;1.50;1.07;;;25.10;29.40;;;;;;2276340;60;20889;-59
2022/06/07 10:16:17;0.00;0.00;0.62;0.00;0.00;0.62;1.70;1.10;;;25.20;29.50;;;;;;2268578;61;20444;-58
2022/06/07 10:19:25;0.00;0.00;0.62;0.00;0.00;0.62;1.40;0.90;;;25.20;29.40;;;;;;2268457;61;20359;-56
2022/06/07 10:22:46;0.00;0.00;0.62;0.00;0.00;0.62;1.30;0.93;;;25.30;29.50;;;;;;2267295;61;20785;-55
2022/06/07 10:25:44;0.00;0.00;0.62;0.00;0.00;0.62;2.03;1.10;;;25.30;29.40;;;;;;2265304;61;20367;-57
2022/06/07 10:28:34;0.00;0.00;0.62;0.00;0.00;0.62;1.60;1.10;;;25.40;29.50;;;;;;2267573;61;20359;-61
2022/06/07 10:31:35;0.00;0.00;0.62;0.00;0.00;0.62;1.50;0.90;;;25.40;29.50;;;;;;2268035;61;20401;-55
2022/06/07 10:34:34;0.00;0.00;0.62;0.00;0.00;0.62;1.63;0.97;;;25.40;29.40;;;;;;2268333;61;20358;-55
2022/06/07 10:37:35;0.00;0.00;0.62;0.00;0.00;0.62;1.73;1.10;;;25.50;29.50;;;;;;2268437;61;21045;-55
2022/06/07 10:40:34;0.00;0.00;0.62;0.00;0.00;0.62;1.70;1.00;;;25.50;29.40;;;;;;2268291;61;20930;-55
2022/06/07 10:43:24;0.00;0.00;0.62;0.00;0.00;0.62;1.70;1.20;;;25.60;29.30;;;;;;2267667;61;20952;-62
2022/06/07 10:46:14;0.00;0.00;0.62;0.00;0.00;0.62;2.40;1.07;;;25.60;29.20;;;;;;2268670;61;20778;-60
2022/06/07 10:49:12;0.00;0.00;0.62;0.00;0.00;0.62;1.40;1.00;;;25.60;29.30;;;;;;2268339;61;20378;-60
2022/06/07 10:52:20;0.00;0.00;0.62;0.00;0.00;0.62;1.40;1.10;;;25.70;29.20;;;;;;2268039;61;20884;-54
2022/06/07 10:55:19;0.00;0.00;0.62;0.00;0.00;0.62;2.17;1.27;;;25.70;29.20;;;;;;2268546;61;20363;-55
2022/06/07 10:58:28;0.00;0.00;0.62;0.00;0.00;0.62;1.50;1.30;;;25.80;29.20;;;;;;2270700;61;20968;-57
2022/06/07 11:01:16;0.00;0.00;0.62;0.00;0.00;0.62;1.50;1.10;;;25.80;29.20;;;;;;2272300;61;20366;-57
2022/06/07 11:09:19;0.00;0.00;0.62;0.00;0.00;0.62;1.60;1.07;;;25.80;29.10;;;;;;2273298;61;20428;-60
2022/06/07 11:10:30;0.00;0.00;0.62;0.00;0.00;0.62;2.90;1.00;;;25.90;29.10;;;;;;2271883;60;20483;-59
2022/06/07 11:13:28;0.00;0.00;0.62;0.00;0.00;0.62;3.37;1.30;;;25.90;29.10;;;;;;2271701;61;20373;-56
2022/06/07 11:16:20;0.00;0.00;0.62;0.00;0.00;0.62;1.80;1.23;;;26.00;29.20;;;;;;2268225;61;20395;-59
2022/06/07 11:19:05;0.00;0.00;0.62;0.00;0.00;0.62;1.63;1.10;;;26.00;29.60;;;;;;2268962;61;20362;-52
2022/06/07 11:21:57;0.00;0.00;0.62;0.00;0.00;0.62;2.67;1.10;;;26.10;29.10;;;;;;2557048;45;20354;-55
2022/06/07 11:24:56;0.00;0.00;0.62;0.00;0.00;0.62;2.10;1.20;;;26.10;29.00;;;;;;2266403;61;20413;-54
2022/06/07 11:27:52;0.00;0.00;0.62;0.00;0.00;0.62;2.03;1.30;;;26.10;29.00;;;;;;2266130;61;20518;-55
2022/06/07 11:30:49;0.00;0.00;0.62;0.00;0.00;0.62;2.20;1.27;;;26.20;29.00;;;;;;2268127;61;20850;-58